View Data : List Evapotranspiration (ETo ) Reports


 
Search Evapotranspiration Reports
Station Fields:
Location:
Date Range:
Start Date:   End Date:
Searched: Report date on 10/28/2021.
Showing 1 - 50 of 62 Records. <Back  Page   Next>
DateTimeStation NumberStation NameGaugeReadingRefill LevelEvap AmtView
10/28/2021  4:58 AM  MO-CP-7  Boonville 0.5 ESE 10.73  0.02   
10/28/2021  5:00 AM  NY-CQ-22  Fredonia 0.8 WNW 2.12  0.02   
10/28/2021  5:30 AM  AL-MD-90  Huntsville 3.7 ENE 5.70  0.08   
10/28/2021  6:00 AM  CA-SJ-5  Lodi 1.0 NNW 1.40  0.10   
10/28/2021  6:00 AM  MD-MG-54  Germantown 4.6 NNE 3.87  0.06   
10/28/2021  6:00 AM  NY-LW-12  Chases Lake Coop 2.62  0.00   
10/28/2021  6:00 AM  TN-MA-3  Jasper 1.7 N 5.43  0.07   
10/28/2021  6:22 AM  NJ-MN-64  Howell Twp 3.7 SSW 4.25  0.02   
10/28/2021  6:30 AM  OH-DR-1  Bradford 2.3 NW 10.44  0.03   
10/28/2021  6:30 AM  TX-ER-4  Stephenville 2.6 NNW 4.20  0.10   
10/28/2021  6:40 AM  TX-BXR-168  Hollywood Park 4.3 ENE 3.75  0.15   
10/28/2021  6:45 AM  IL-DK-28  De Kalb 0.7 SW 7.51  0.02   
10/28/2021  7:00 AM  AZ-MR-326  Phoenix 6.3 SSW 1.34  0.08   
10/28/2021  7:00 AM  AZ-PN-50  Saddlebrooke 1.5 SW 7.64  0.16   
10/28/2021  7:00 AM  CA-SD-12  Poway 3.2NE 9.21  0.18   
10/28/2021  7:00 AM  CA-SN-164  Forestville 1.4 SW 3.93  0.03   
10/28/2021  7:00 AM  FL-MR-66  The Villages 3.7 NNW 1.60  0.16   
10/28/2021  7:00 AM  GA-CO-3  Adel 1.9 SSE 6.10  0.07   
10/28/2021  7:00 AM  GA-FY-28  Fayetteville 2.1 NNE 6.67  0.10   
10/28/2021  7:00 AM  IL-CP-1  Homer 2.0 N 4.53  0.04   
10/28/2021  7:00 AM  IL-GY-1  Carbon Hill 3.1 N 1.05  0.05   
10/28/2021  7:00 AM  IL-WF-14  El Paso 5.2 NNW 9.37  0.06   
10/28/2021  7:00 AM  IN-OW-9  Spencer 7.0 S 6.55  0.03   
10/28/2021  7:00 AM  IA-CL-4  Murray 1.7 W 10.13  0.03   
10/28/2021  7:00 AM  IA-TY-2  New Market 4.7 N 1.96  0.02   
10/28/2021  7:00 AM  KS-SG-111  Wichita 5.9 WSW 8.85  0.04   
10/28/2021  7:00 AM  KY-CW-3  Murray 1.9 WSW 7.51  0.02   
10/28/2021  7:00 AM  KY-FR-1  Frankfort 3.3 NE 3.42  0.02   
10/28/2021  7:00 AM  ME-LN-1  Newcastle 2.1 SW 9.40  0.00   
10/28/2021  7:00 AM  ME-YK-2  Kittery Point 0.8 WSW 8.44  0.01   
10/28/2021  7:00 AM  MD-HR-23  Norrisville 0.6 WSW 9.35  0.05   
10/28/2021  7:00 AM  NM-BR-183  Sandia Park 3.6 ESE 8.92  0.13   
10/28/2021  7:00 AM  NY-OS-38  Mexico COOP 5.17  0.04   
10/28/2021  7:00 AM  NY-WY-10  Wyoming COOP 11.59  0.01   
10/28/2021  7:00 AM  NY-WY-11  Silver Springs COOP 4.75  0.05   
10/28/2021  7:00 AM  OH-PB-1  Eaton 1.0 N 0.82  0.03   
10/28/2021  7:00 AM  OK-PY-9  Glencoe 3.0 W 10.45  0.02   
10/28/2021  7:00 AM  PA-MT-85  Skippack 2.6 ESE 9.84  0.04   
10/28/2021  7:00 AM  SC-CR-49  NWS Charleston SC 4.12  0.02   
10/28/2021  7:00 AM  TN-PT-3  Byrdstown 2.8 SSW 5.42  0.12   
10/28/2021  7:00 AM  TX-TV-9  West Lake Hills 2.4 NNW 3.33  0.09   
10/28/2021  7:00 AM  WA-WC-52  Bellingham 2.3 S 7.25  0.03   
10/28/2021  7:07 AM  CA-SK-20  Grenada 0.8 SW 5.41  0.02   
10/28/2021  7:15 AM  NY-WC-6  South Salem 2.1 NW 10.01  0.02   
10/28/2021  7:18 AM  VA-HV-8  Montpelier 4.8 E 6.59  0.02   
10/28/2021  7:40 AM  WA-TH-28  Olympia 7.0 NNE 4.98  0.00   
10/28/2021  7:55 AM  CAN-BC-8  Cowichan Bay 1.9 SE 5.00  0.00   
10/28/2021  8:00 AM  CA-BT-5  Oroville 4.8 E 1.80  0.04   
10/28/2021  8:00 AM  IN-AL-42  Fort Wayne 7.1 WSW 8.68  0.10   
10/28/2021  8:00 AM  IN-MR-13  Speedway 6.2 SSW 5.37  0.07   
Showing 1 - 50 of 62 Records. <Back  Page   Next>